createdAt,value
2017-11-17T00:00:11.850Z,2.72
2017-11-17T00:05:16.964Z,2.71
2017-11-17T00:10:23.700Z,2.73
2017-11-17T00:12:55.421Z,2.72
2017-11-17T00:18:00.292Z,2.65
2017-11-17T00:20:34.490Z,2.68
2017-11-17T00:23:06.179Z,2.62
2017-11-17T00:25:36.920Z,2.61
2017-11-17T00:30:45.331Z,2.59
2017-11-17T00:33:17.031Z,2.61
2017-11-17T00:35:48.001Z,2.62
2017-11-17T00:46:02.162Z,2.73
2017-11-17T00:48:32.523Z,2.64
2017-11-17T00:51:04.639Z,2.64
2017-11-17T00:56:15.156Z,2.71
2017-11-17T01:03:53.687Z,2.64
2017-11-17T01:06:25.937Z,2.69
2017-11-17T01:11:38.536Z,2.78
2017-11-17T01:14:12.204Z,2.78
2017-11-17T01:16:44.040Z,2.80
2017-11-17T01:19:14.797Z,2.85
2017-11-17T01:21:45.867Z,2.75
2017-11-17T01:24:16.043Z,2.87
2017-11-17T01:26:47.564Z,2.82
2017-11-17T01:29:19.548Z,2.90
2017-11-17T01:31:51.712Z,2.81
2017-11-17T01:34:22.270Z,2.85
2017-11-17T01:36:52.141Z,2.81
2017-11-17T01:39:23.971Z,2.79
2017-11-17T01:41:56.073Z,2.75
2017-11-17T01:44:26.559Z,2.81
2017-11-17T01:46:57.096Z,2.86
2017-11-17T01:49:29.039Z,2.87
2017-11-17T01:54:34.166Z,2.95
2017-11-17T01:57:03.992Z,2.84
2017-11-17T01:59:35.356Z,2.84
2017-11-17T02:02:05.723Z,2.72
2017-11-17T02:04:38.980Z,2.74
2017-11-17T02:07:08.892Z,2.81
2017-11-17T02:09:39.035Z,2.80
2017-11-17T02:17:25.511Z,2.91
2017-11-17T02:19:55.975Z,2.89
2017-11-17T02:25:03.604Z,2.91
2017-11-17T02:27:35.834Z,2.80
2017-11-17T02:30:09.653Z,2.77
2017-11-17T02:32:47.466Z,2.71
2017-11-17T02:35:22.701Z,2.72
2017-11-17T02:37:53.122Z,2.90
2017-11-17T02:40:24.357Z,2.93
2017-11-17T02:45:35.056Z,2.95
2017-11-17T03:08:40.693Z,2.93
2017-11-17T03:11:11.740Z,2.78
2017-11-17T03:16:23.586Z,2.88
2017-11-17T03:18:54.449Z,2.94
2017-11-17T03:21:27.255Z,2.95
2017-11-17T03:24:00.248Z,2.86
2017-11-17T03:26:31.662Z,2.85
2017-11-17T03:32:11.642Z,3.00
2017-11-17T03:34:41.911Z,3.04
2017-11-17T03:37:12.133Z,3.07
2017-11-17T03:39:44.341Z,3.10
2017-11-17T03:44:49.548Z,3.01
2017-11-17T03:47:20.649Z,2.98
2017-11-17T03:52:25.323Z,3.01
2017-11-17T03:54:56.472Z,2.97
2017-11-17T03:57:27.286Z,2.93
2017-11-17T04:02:32.803Z,3.04
2017-11-17T04:07:38.761Z,2.98
2017-11-17T04:12:44.565Z,2.94
2017-11-17T04:15:14.779Z,2.95
2017-11-17T04:17:49.688Z,3.02
2017-11-17T04:25:36.755Z,2.92
2017-11-17T04:28:10.772Z,2.93
2017-11-17T04:30:40.789Z,2.98
2017-11-17T04:33:11.077Z,2.88
2017-11-17T04:35:41.051Z,2.82
2017-11-17T04:38:16.548Z,2.87
2017-11-17T04:45:59.163Z,2.77
2017-11-17T04:48:30.796Z,2.83
2017-11-17T04:58:56.433Z,3.00
2017-11-17T05:06:48.727Z,2.89
2017-11-17T05:26:33.681Z,2.91
2017-11-17T05:29:04.315Z,3.00
2017-11-17T05:31:38.946Z,2.86
2017-11-17T05:36:49.229Z,2.80
2017-11-17T05:39:20.810Z,2.77
2017-11-17T05:45:38.535Z,2.79
2017-11-17T05:48:10.284Z,2.74
2017-11-17T05:50:52.921Z,2.68
2017-11-17T05:53:28.110Z,2.70
2017-11-17T05:55:58.881Z,2.74
2017-11-17T05:58:33.564Z,2.80
2017-11-17T06:01:31.474Z,2.77
2017-11-17T06:04:08.454Z,2.82
2017-11-17T06:06:43.315Z,2.85
2017-11-17T06:09:17.749Z,2.80
2017-11-17T06:19:55.842Z,2.80
2017-11-17T06:30:11.896Z,2.87
2017-11-17T06:35:25.178Z,2.88
2017-11-17T06:37:56.028Z,3.01
2017-11-17T06:40:26.166Z,3.02
2017-11-17T06:42:59.691Z,2.99
2017-11-17T06:45:31.014Z,2.99
2017-11-17T06:48:01.084Z,2.89
2017-11-17T06:50:30.815Z,2.88
2017-11-17T06:53:00.876Z,2.82
2017-11-17T06:55:31.705Z,2.92
2017-11-17T06:58:01.801Z,2.96
2017-11-17T07:00:31.643Z,3.05
2017-11-17T07:03:02.944Z,2.94
2017-11-17T07:05:34.716Z,2.96
2017-11-17T07:08:05.416Z,3.04
2017-11-17T07:10:39.311Z,2.99
2017-11-17T07:13:14.558Z,3.05
2017-11-17T07:15:52.868Z,3.00
2017-11-17T07:18:22.928Z,2.99
2017-11-17T07:20:57.587Z,2.96
2017-11-17T07:28:42.548Z,3.10
2017-11-17T07:31:13.287Z,2.98
2017-11-17T07:33:47.158Z,3.09
2017-11-17T07:36:20.369Z,3.07
2017-11-17T07:41:35.683Z,3.07
2017-11-17T07:46:44.275Z,3.21
2017-11-17T07:49:14.440Z,3.30
2017-11-17T07:51:52.480Z,3.39
2017-11-17T07:54:22.869Z,3.33
2017-11-17T07:56:53.493Z,3.35
2017-11-17T07:59:23.180Z,3.43
2017-11-17T08:01:53.202Z,3.41
2017-11-17T08:04:23.399Z,3.47
2017-11-17T08:06:54.940Z,3.42
2017-11-17T08:09:24.848Z,3.35
2017-11-17T08:11:55.050Z,3.45
2017-11-17T08:14:26.912Z,3.49
2017-11-17T08:17:07.991Z,3.42
2017-11-17T08:19:37.843Z,3.38
2017-11-17T08:22:08.611Z,3.47
2017-11-17T08:24:38.772Z,3.45
2017-11-17T08:27:08.815Z,3.47
2017-11-17T08:29:38.758Z,3.46
2017-11-17T08:32:10.120Z,3.62
2017-11-17T08:34:39.835Z,3.73
2017-11-17T08:37:13.957Z,3.69
2017-11-17T08:42:21.066Z,3.76
2017-11-17T08:44:51.140Z,3.84
2017-11-17T08:47:23.086Z,3.93
2017-11-17T08:49:53.045Z,4.05
2017-11-17T08:52:26.344Z,4.13
2017-11-17T08:54:58.396Z,4.16
2017-11-17T08:57:28.656Z,4.19
2017-11-17T08:59:58.445Z,4.12
2017-11-17T09:02:28.676Z,4.21
2017-11-17T09:07:34.845Z,4.11
2017-11-17T09:10:06.294Z,4.10
2017-11-17T09:12:36.624Z,4.04
2017-11-17T09:15:08.573Z,4.07
2017-11-17T09:17:38.768Z,4.09
2017-11-17T09:22:45.753Z,4.21
2017-11-17T09:25:15.953Z,4.23
2017-11-17T09:27:54.097Z,4.29
2017-11-17T09:30:24.257Z,4.23
2017-11-17T09:32:56.458Z,4.23
2017-11-17T09:35:26.428Z,4.19
2017-11-17T09:38:00.178Z,4.00
2017-11-17T09:40:34.930Z,4.25
2017-11-17T09:43:09.622Z,4.29
2017-11-17T09:45:40.062Z,4.35
2017-11-17T09:48:40.076Z,4.37
2017-11-17T09:56:26.496Z,4.57
2017-11-17T09:58:56.629Z,4.58
2017-11-17T10:01:39.451Z,4.51
2017-11-17T10:06:56.694Z,4.56
2017-11-17T10:12:09.940Z,4.45
2017-11-17T10:14:42.481Z,4.34
2017-11-17T10:19:51.329Z,4.38
2017-11-17T10:22:22.326Z,4.32
2017-11-17T10:27:43.413Z,4.54
2017-11-17T10:42:46.455Z,4.37
2017-11-17T10:57:26.124Z,4.75
2017-11-17T10:59:59.995Z,4.87
2017-11-17T11:02:30.211Z,4.88
2017-11-17T11:05:00.963Z,4.86
2017-11-17T11:07:31.914Z,4.83
2017-11-17T11:10:06.303Z,4.79
2017-11-17T11:17:54.578Z,4.64
2017-11-17T11:29:01.872Z,4.58
2017-11-17T11:31:35.036Z,4.52
2017-11-17T11:34:06.969Z,4.59
2017-11-17T11:39:11.853Z,4.61
2017-11-17T11:41:44.006Z,4.66
2017-11-17T11:44:15.506Z,4.68
2017-11-17T11:49:30.606Z,4.77
2017-11-17T11:54:43.127Z,4.54
2017-11-17T11:57:13.401Z,4.64
2017-11-17T11:59:43.707Z,4.65
2017-11-17T12:02:15.103Z,4.82
2017-11-17T12:04:50.380Z,4.76
2017-11-17T12:21:27.435Z,4.91
2017-11-17T12:23:57.543Z,5.13
2017-11-17T12:26:27.476Z,5.18
2017-11-17T12:49:58.916Z,5.55
2017-11-17T12:52:28.900Z,5.58
2017-11-17T12:54:59.442Z,5.59
2017-11-17T12:57:29.630Z,5.57
2017-11-17T12:59:59.615Z,5.48
2017-11-17T13:02:29.523Z,5.19
2017-11-17T13:04:59.482Z,5.20
2017-11-17T13:07:29.531Z,5.40
2017-11-17T13:09:59.580Z,5.44
2017-11-17T13:12:29.580Z,5.48
2017-11-17T13:14:59.479Z,5.47
2017-11-17T13:17:30.914Z,5.45
2017-11-17T13:20:05.041Z,5.48
2017-11-17T13:22:35.669Z,5.51
2017-11-17T13:25:07.253Z,5.45
2017-11-17T13:27:38.800Z,5.47
2017-11-17T13:30:08.662Z,5.33
2017-11-17T13:32:38.453Z,5.15
2017-11-17T13:35:08.363Z,5.10
2017-11-17T13:37:49.174Z,5.24
2017-11-17T13:40:26.133Z,5.23
2017-11-17T13:42:56.683Z,5.28
2017-11-17T13:45:29.263Z,5.30
2017-11-17T13:48:00.008Z,5.30
2017-11-17T13:50:30.761Z,5.30
2017-11-17T13:53:06.078Z,5.23
2017-11-17T13:55:35.684Z,5.16
2017-11-17T13:58:06.462Z,5.13
2017-11-17T14:00:37.387Z,5.15
2017-11-17T14:03:07.934Z,5.17
2017-11-17T14:05:38.095Z,5.09
2017-11-17T14:08:08.191Z,5.08
2017-11-17T14:10:38.607Z,5.13
2017-11-17T14:13:08.449Z,5.16
2017-11-17T14:15:38.393Z,5.05
2017-11-17T14:18:08.237Z,5.17
2017-11-17T14:20:38.043Z,5.13
2017-11-17T14:23:07.942Z,5.13
2017-11-17T14:25:37.811Z,5.12
2017-11-17T14:28:07.607Z,5.13
2017-11-17T14:30:38.571Z,5.14
2017-11-17T14:33:11.850Z,5.17
2017-11-17T14:35:43.271Z,5.10
2017-11-17T14:38:14.158Z,5.15
2017-11-17T14:40:44.153Z,5.01
2017-11-17T14:43:18.873Z,5.02
2017-11-17T14:45:52.451Z,5.08
2017-11-17T14:48:23.149Z,5.00
2017-11-17T14:50:55.421Z,5.08
2017-11-17T14:53:25.757Z,5.04
2017-11-17T14:55:56.714Z,4.93
2017-11-17T14:58:35.376Z,4.84
2017-11-17T15:01:07.673Z,4.80
2017-11-17T15:03:47.843Z,4.89
2017-11-17T15:06:50.845Z,4.81
2017-11-17T15:11:55.201Z,4.83
2017-11-17T15:14:35.200Z,4.90
2017-11-17T15:17:23.646Z,4.85
2017-11-17T15:20:14.765Z,4.83
2017-11-17T15:41:21.722Z,4.73
2017-11-17T15:44:05.436Z,4.79
2017-11-17T15:47:06.409Z,4.73
2017-11-17T15:58:24.891Z,4.74
2017-11-17T16:00:59.958Z,4.65
2017-11-17T16:03:31.130Z,4.57
2017-11-17T16:06:01.069Z,4.62
2017-11-17T16:08:32.070Z,4.62
2017-11-17T16:11:05.620Z,4.57
2017-11-17T16:13:36.438Z,4.65
2017-11-17T16:16:08.080Z,4.63
2017-11-17T16:18:39.043Z,4.65
2017-11-17T16:21:11.391Z,4.63
2017-11-17T16:23:42.796Z,4.59
2017-11-17T16:26:17.106Z,4.64
2017-11-17T16:28:51.644Z,4.56
2017-11-17T16:31:21.401Z,4.49
2017-11-17T16:33:58.882Z,4.46
2017-11-17T16:37:19.218Z,4.56
2017-11-17T16:39:54.339Z,4.51
2017-11-17T16:45:28.504Z,4.48
2017-11-17T16:47:59.452Z,4.50
2017-11-17T16:50:30.858Z,4.51
2017-11-17T16:53:05.001Z,4.51
2017-11-17T17:03:29.609Z,4.35
2017-11-17T17:06:00.152Z,4.34
2017-11-17T17:08:30.260Z,4.40
2017-11-17T17:11:01.356Z,4.47
2017-11-17T17:13:32.496Z,4.53
2017-11-17T17:16:02.750Z,4.60
2017-11-17T17:18:34.663Z,4.58
2017-11-17T17:21:13.681Z,4.51
2017-11-17T17:23:44.119Z,4.49
2017-11-17T17:26:14.468Z,4.54
2017-11-17T17:31:28.454Z,4.49
2017-11-17T17:33:59.540Z,4.46
2017-11-17T17:36:30.760Z,4.47
2017-11-17T17:39:11.771Z,4.45
2017-11-17T17:41:53.956Z,4.46
2017-11-17T17:44:27.347Z,4.47
2017-11-17T17:46:57.588Z,4.41
2017-11-17T18:08:42.291Z,4.12
2017-11-17T18:11:12.781Z,4.08
2017-11-17T18:16:51.646Z,4.16
2017-11-17T18:19:21.619Z,4.19
2017-11-17T18:21:51.450Z,4.18
2017-11-17T18:24:21.258Z,4.12
2017-11-17T18:26:51.291Z,4.16
2017-11-17T18:29:21.261Z,4.16
2017-11-17T18:31:51.715Z,4.14
2017-11-17T18:34:22.694Z,4.10
2017-11-17T18:36:52.744Z,4.10
2017-11-17T18:39:22.740Z,4.08
2017-11-17T18:41:52.599Z,4.11
2017-11-17T18:44:23.150Z,4.08
2017-11-17T18:46:53.050Z,4.05
2017-11-17T18:49:22.638Z,4.01
2017-11-17T18:51:53.438Z,4.04
2017-11-17T18:54:24.113Z,4.03
2017-11-17T18:56:54.196Z,3.98
2017-11-17T18:59:24.192Z,4.00
2017-11-17T19:01:54.055Z,4.00
2017-11-17T19:04:23.765Z,4.02
2017-11-17T19:06:53.750Z,3.97
2017-11-17T19:09:23.515Z,3.94
2017-11-17T19:11:53.257Z,3.94
2017-11-17T19:14:23.008Z,3.87
2017-11-17T19:16:52.637Z,3.93
2017-11-17T19:19:22.552Z,3.94
2017-11-17T19:21:52.388Z,3.94
2017-11-17T19:24:22.883Z,3.96
2017-11-17T19:26:52.689Z,4.00
2017-11-17T19:29:23.011Z,3.97
2017-11-17T19:31:52.870Z,3.97
2017-11-17T19:34:22.688Z,3.96
2017-11-17T19:36:52.486Z,3.96
2017-11-17T19:39:22.255Z,3.94
2017-11-17T19:41:52.100Z,3.93
2017-11-17T19:44:21.917Z,3.96
2017-11-17T19:46:51.687Z,3.92
2017-11-17T19:49:21.439Z,3.94
2017-11-17T19:51:51.190Z,3.93
2017-11-17T19:54:20.925Z,3.84
2017-11-17T19:56:50.682Z,3.85
2017-11-17T19:59:20.443Z,3.81
2017-11-17T20:01:50.185Z,3.81
2017-11-17T20:04:20.263Z,3.84
2017-11-17T20:06:50.039Z,3.84
2017-11-17T20:09:20.102Z,3.84
2017-11-17T20:11:49.876Z,3.87
2017-11-17T20:14:19.687Z,3.82
2017-11-17T20:16:49.913Z,3.82
2017-11-17T20:19:19.651Z,3.79
2017-11-17T20:21:49.400Z,3.79
2017-11-17T20:24:19.159Z,3.84
2017-11-17T20:26:48.969Z,3.83
2017-11-17T20:29:18.781Z,3.85
2017-11-17T20:31:48.537Z,3.83
2017-11-17T20:34:18.419Z,3.77
2017-11-17T20:36:48.251Z,3.80
2017-11-17T20:39:18.024Z,3.83
2017-11-17T20:41:48.667Z,3.82
2017-11-17T20:44:18.411Z,3.81
2017-11-17T20:46:48.213Z,3.79
2017-11-17T20:49:21.439Z,3.75
2017-11-17T20:51:51.203Z,3.79
2017-11-17T20:54:20.943Z,3.76
2017-11-17T20:56:50.734Z,3.82
2017-11-17T20:59:20.341Z,3.83
2017-11-17T21:01:50.079Z,3.82
2017-11-17T21:04:23.708Z,3.84
2017-11-17T21:06:53.545Z,3.86
2017-11-17T21:09:23.441Z,3.87
2017-11-17T21:11:53.011Z,3.86
2017-11-17T21:14:22.762Z,3.85
2017-11-17T21:16:52.498Z,3.86
2017-11-17T21:19:23.233Z,3.80
2017-11-17T21:21:53.001Z,3.83
2017-11-17T21:24:22.737Z,3.89
2017-11-17T21:26:52.553Z,3.76
2017-11-17T21:29:22.287Z,3.82
2017-11-17T21:31:52.101Z,3.92
2017-11-17T21:34:21.914Z,3.85
2017-11-17T21:36:51.784Z,3.82
2017-11-17T21:39:21.772Z,3.71
2017-11-17T21:41:51.595Z,3.86
2017-11-17T21:44:21.653Z,3.79
2017-11-17T21:46:51.870Z,3.77
2017-11-17T21:49:21.720Z,3.74
2017-11-17T21:51:51.531Z,3.81
2017-11-17T21:54:22.163Z,3.68
2017-11-17T21:56:52.082Z,3.81
2017-11-17T21:59:21.825Z,3.81
2017-11-17T22:01:51.626Z,3.90
2017-11-17T22:04:21.453Z,3.86
2017-11-17T22:06:51.276Z,3.77
2017-11-17T22:09:21.076Z,3.97
2017-11-17T22:11:50.908Z,3.88
2017-11-17T22:14:20.691Z,3.78
2017-11-17T22:16:50.435Z,3.75
2017-11-17T22:19:20.167Z,3.73
2017-11-17T22:21:49.990Z,3.74
2017-11-17T22:24:19.776Z,3.77
2017-11-17T22:26:53.573Z,3.80
2017-11-17T22:29:23.443Z,3.74
2017-11-17T22:31:53.226Z,3.77
2017-11-17T22:34:23.064Z,3.71
2017-11-17T22:36:52.830Z,3.68
2017-11-17T22:44:37.439Z,3.80
2017-11-17T22:47:08.064Z,3.82
2017-11-17T22:49:38.985Z,3.84
2017-11-17T22:52:10.496Z,3.90
2017-11-17T22:54:40.495Z,3.88
2017-11-17T22:57:10.966Z,3.83
2017-11-17T22:59:41.299Z,3.83
2017-11-17T23:02:11.780Z,3.90
2017-11-17T23:04:42.253Z,3.95
2017-11-17T23:07:12.792Z,3.86
2017-11-17T23:09:43.944Z,3.83
2017-11-17T23:12:15.371Z,3.81
2017-11-17T23:14:45.451Z,3.84
2017-11-17T23:19:50.874Z,3.71
2017-11-17T23:22:20.722Z,3.79
2017-11-17T23:24:52.625Z,3.72
2017-11-17T23:29:57.583Z,3.75
2017-11-17T23:32:29.693Z,3.79
2017-11-17T23:37:44.499Z,3.82
2017-11-17T23:42:57.791Z,3.76
2017-11-17T23:45:29.344Z,3.86
2017-11-17T23:47:59.588Z,3.98
2017-11-17T23:53:03.394Z,3.97
2017-11-17T23:55:35.123Z,3.98
2017-11-17T23:58:07.796Z,4.00
